createdAt,value
2023-11-12T00:01:57.863Z,3.52
2023-11-12T00:04:24.820Z,3.14
2023-11-12T00:06:52.113Z,3.35
2023-11-12T00:09:18.769Z,3.30
2023-11-12T00:11:46.035Z,3.32
2023-11-12T00:14:12.528Z,3.30
2023-11-12T00:16:39.023Z,3.25
2023-11-12T00:19:06.014Z,3.40
2023-11-12T00:21:32.427Z,3.42
2023-11-12T00:23:59.167Z,3.43
2023-11-12T00:26:25.611Z,3.41
2023-11-12T00:28:52.063Z,3.10
2023-11-12T00:31:19.008Z,3.02
2023-11-12T00:33:47.118Z,3.07
2023-11-12T00:36:15.092Z,3.05
2023-11-12T00:38:41.746Z,3.04
2023-11-12T00:41:10.392Z,2.91
2023-11-12T00:43:37.871Z,2.93
2023-11-12T00:46:05.442Z,3.11
2023-11-12T00:48:32.077Z,3.10
2023-11-12T00:50:58.532Z,3.13
2023-11-12T00:53:26.053Z,3.03
2023-11-12T00:55:53.636Z,3.18
2023-11-12T00:58:20.077Z,3.24
2023-11-12T01:00:46.512Z,3.07
2023-11-12T01:03:13.470Z,3.07
2023-11-12T01:05:40.013Z,3.29
2023-11-12T01:08:07.684Z,3.38
2023-11-12T01:10:34.128Z,3.28
2023-11-12T01:13:03.593Z,3.41
2023-11-12T01:15:30.483Z,3.56
2023-11-12T01:17:57.218Z,3.32
2023-11-12T01:20:24.024Z,3.53
2023-11-12T01:22:50.664Z,3.76
2023-11-12T01:25:17.257Z,3.91
2023-11-12T01:27:43.713Z,4.03
2023-11-12T01:30:10.543Z,4.21
2023-11-12T01:32:37.066Z,3.80
2023-11-12T01:35:04.395Z,4.28
2023-11-12T01:37:30.864Z,4.29
2023-11-12T01:39:57.310Z,4.53
2023-11-12T01:42:24.085Z,4.65
2023-11-12T01:44:50.701Z,4.63
2023-11-12T01:47:18.171Z,4.70
2023-11-12T01:49:44.697Z,4.85
2023-11-12T01:52:12.455Z,4.97
2023-11-12T01:54:40.925Z,4.94
2023-11-12T01:57:08.425Z,5.01
2023-11-12T01:59:36.898Z,4.94
2023-11-12T02:02:04.481Z,5.00
2023-11-12T02:04:31.099Z,4.97
2023-11-12T02:07:00.213Z,5.10
2023-11-12T02:09:27.389Z,5.22
2023-11-12T02:11:55.276Z,5.14
2023-11-12T02:14:24.699Z,5.10
2023-11-12T02:16:52.285Z,5.22
2023-11-12T02:19:29.503Z,5.04
2023-11-12T02:21:56.918Z,4.99
2023-11-12T02:24:27.105Z,5.12
2023-11-12T02:26:53.579Z,5.17
2023-11-12T02:29:20.298Z,5.09
2023-11-12T02:31:46.767Z,5.02
2023-11-12T02:34:13.169Z,5.11
2023-11-12T02:36:39.774Z,5.09
2023-11-12T02:39:10.110Z,4.96
2023-11-12T02:41:40.614Z,5.01
2023-11-12T02:44:10.646Z,4.97
2023-11-12T02:46:37.169Z,5.08
2023-11-12T02:49:33.258Z,5.15
2023-11-12T02:51:59.655Z,5.15
2023-11-12T02:54:26.265Z,5.08
2023-11-12T02:56:52.682Z,5.16
2023-11-12T02:59:20.174Z,5.05
2023-11-12T03:01:46.593Z,4.99
2023-11-12T03:04:13.216Z,4.87
2023-11-12T03:06:39.685Z,4.86
2023-11-12T03:09:07.808Z,4.86
2023-11-12T03:11:34.225Z,4.94
2023-11-12T03:14:00.677Z,5.05
2023-11-12T03:16:27.473Z,5.11
2023-11-12T03:18:54.490Z,5.10
2023-11-12T03:21:20.904Z,5.06
2023-11-12T03:23:47.393Z,5.12
2023-11-12T03:26:13.795Z,5.42
2023-11-12T03:28:40.264Z,5.32
2023-11-12T03:31:06.712Z,5.30
2023-11-12T03:33:33.200Z,5.42
2023-11-12T03:35:59.642Z,5.41
2023-11-12T03:38:26.359Z,5.44
2023-11-12T03:40:53.315Z,5.30
2023-11-12T03:43:19.695Z,5.08
2023-11-12T03:45:46.128Z,5.13
2023-11-12T03:48:12.613Z,5.00
2023-11-12T03:50:39.073Z,5.14
2023-11-12T03:53:05.608Z,5.23
2023-11-12T03:55:32.130Z,5.22
2023-11-12T03:57:58.628Z,5.28
2023-11-12T04:00:29.400Z,5.35
2023-11-12T04:02:56.015Z,5.26
2023-11-12T04:05:22.498Z,5.29
2023-11-12T04:07:49.338Z,5.46
2023-11-12T04:10:15.930Z,5.62
2023-11-12T04:12:42.376Z,5.73
2023-11-12T04:15:09.261Z,5.84
2023-11-12T04:17:37.541Z,5.80
2023-11-12T04:20:07.482Z,5.71
2023-11-12T04:22:33.878Z,5.81
2023-11-12T04:25:00.375Z,5.90
2023-11-12T04:27:26.873Z,5.81
2023-11-12T04:29:53.313Z,5.89
2023-11-12T04:32:19.713Z,5.91
2023-11-12T04:34:47.504Z,6.04
2023-11-12T04:37:14.575Z,5.94
2023-11-12T04:39:43.881Z,5.94
2023-11-12T04:42:10.369Z,6.03
2023-11-12T04:44:37.040Z,5.98
2023-11-12T04:47:03.441Z,5.92
2023-11-12T04:49:29.828Z,6.19
2023-11-12T04:51:56.304Z,6.12
2023-11-12T04:54:22.736Z,6.08
2023-11-12T04:56:49.544Z,6.19
2023-11-12T04:59:16.789Z,6.26
2023-11-12T05:01:43.292Z,6.37
2023-11-12T05:04:10.001Z,6.25
2023-11-12T05:06:36.612Z,5.97
2023-11-12T05:09:03.405Z,5.87
2023-11-12T05:11:29.911Z,6.00
2023-11-12T05:13:56.734Z,6.30
2023-11-12T05:16:23.276Z,6.38
2023-11-12T05:18:49.807Z,6.40
2023-11-12T05:21:16.371Z,6.27
2023-11-12T05:23:42.824Z,6.22
2023-11-12T05:26:09.524Z,6.27
2023-11-12T05:28:36.173Z,6.37
2023-11-12T05:31:02.778Z,6.42
2023-11-12T05:33:29.283Z,6.41
2023-11-12T05:35:55.674Z,6.50
2023-11-12T05:38:22.131Z,6.60
2023-11-12T05:40:48.520Z,6.50
2023-11-12T05:43:15.018Z,6.49
2023-11-12T05:45:41.556Z,6.60
2023-11-12T05:48:10.950Z,6.48
2023-11-12T05:50:38.630Z,6.47
2023-11-12T05:53:05.013Z,6.54
2023-11-12T05:55:31.450Z,6.60
2023-11-12T05:57:59.096Z,6.71
2023-11-12T06:00:25.541Z,6.63
2023-11-12T06:02:52.032Z,6.64
2023-11-12T06:05:18.499Z,6.67
2023-11-12T06:07:45.739Z,6.63
2023-11-12T06:10:12.589Z,6.64
2023-11-12T06:12:39.083Z,6.59
2023-11-12T06:15:07.454Z,6.97
2023-11-12T06:17:33.885Z,6.88
2023-11-12T06:20:00.438Z,6.80
2023-11-12T06:22:26.861Z,6.79
2023-11-12T06:24:53.603Z,6.76
2023-11-12T06:27:20.696Z,6.66
2023-11-12T06:29:47.637Z,6.70
2023-11-12T06:32:14.073Z,6.77
2023-11-12T06:34:40.460Z,6.74
2023-11-12T06:37:06.897Z,6.86
2023-11-12T06:39:33.438Z,6.72
2023-11-12T06:42:00.202Z,6.75
2023-11-12T06:44:26.799Z,6.79
2023-11-12T06:46:53.216Z,6.69
2023-11-12T06:49:19.832Z,6.66
2023-11-12T06:51:46.491Z,6.73
2023-11-12T06:54:13.681Z,6.73
2023-11-12T06:56:40.182Z,6.69
2023-11-12T06:59:06.639Z,6.75
2023-11-12T07:01:33.088Z,6.76
2023-11-12T07:04:00.647Z,6.90
2023-11-12T07:06:27.350Z,6.95
2023-11-12T07:08:53.720Z,6.89
2023-11-12T07:11:20.215Z,6.91
2023-11-12T07:13:46.697Z,6.77
2023-11-12T07:16:19.587Z,6.58
2023-11-12T07:18:53.646Z,6.80
2023-11-12T07:21:32.057Z,6.92
2023-11-12T07:23:59.172Z,7.01
2023-11-12T07:26:26.343Z,6.96
2023-11-12T07:28:53.488Z,6.73
2023-11-12T07:31:23.025Z,6.66
2023-11-12T07:33:50.261Z,6.60
2023-11-12T07:36:16.890Z,6.73
2023-11-12T07:38:43.429Z,6.78
2023-11-12T07:41:09.964Z,6.75
2023-11-12T07:43:37.106Z,6.99
2023-11-12T07:46:04.692Z,7.04
2023-11-12T07:48:32.128Z,6.99
2023-11-12T07:50:59.169Z,6.97
2023-11-12T07:53:29.415Z,7.18
2023-11-12T07:55:56.146Z,7.27
2023-11-12T07:58:23.259Z,7.21
2023-11-12T08:00:49.962Z,7.34
2023-11-12T08:03:16.423Z,7.33
2023-11-12T08:05:43.036Z,7.41
2023-11-12T08:08:09.441Z,7.41
2023-11-12T08:10:39.283Z,7.33
2023-11-12T08:13:05.833Z,7.20
2023-11-12T08:15:32.506Z,7.28
2023-11-12T08:17:59.105Z,7.09
2023-11-12T08:20:25.563Z,7.03
2023-11-12T08:22:52.008Z,7.02
2023-11-12T08:25:18.726Z,7.13
2023-11-12T08:27:45.289Z,7.12
2023-11-12T08:30:12.025Z,7.12
2023-11-12T08:32:40.102Z,7.33
2023-11-12T08:35:07.089Z,7.11
2023-11-12T08:37:33.621Z,7.21
2023-11-12T08:40:00.133Z,7.19
2023-11-12T08:42:27.871Z,7.39
2023-11-12T08:44:55.809Z,7.23
2023-11-12T08:47:22.217Z,7.42
2023-11-12T08:49:48.652Z,7.83
2023-11-12T08:52:15.904Z,7.80
2023-11-12T08:54:42.817Z,7.68
2023-11-12T08:57:10.427Z,7.62
2023-11-12T08:59:40.369Z,7.80
2023-11-12T09:02:10.419Z,7.99
2023-11-12T09:04:36.866Z,8.24
2023-11-12T09:07:03.784Z,7.93
2023-11-12T09:09:30.173Z,8.32
2023-11-12T09:11:59.203Z,8.40
2023-11-12T09:14:26.140Z,8.44
2023-11-12T09:16:52.850Z,8.48
2023-11-12T09:19:19.305Z,8.50
2023-11-12T09:21:45.695Z,8.29
2023-11-12T09:24:14.202Z,8.18
2023-11-12T09:26:40.662Z,8.20
2023-11-12T09:29:07.048Z,8.53
2023-11-12T09:31:33.784Z,8.66
2023-11-12T09:34:00.380Z,8.57
2023-11-12T09:36:27.079Z,8.75
2023-11-12T09:38:53.569Z,8.60
2023-11-12T09:41:22.740Z,8.74
2023-11-12T09:43:52.558Z,8.91
2023-11-12T09:46:21.272Z,8.84
2023-11-12T09:48:47.897Z,8.90
2023-11-12T09:51:14.752Z,8.87
2023-11-12T09:53:43.585Z,9.03
2023-11-12T09:56:10.629Z,9.03
2023-11-12T09:58:38.131Z,9.01
2023-11-12T10:01:08.856Z,9.11
2023-11-12T10:03:36.259Z,9.13
2023-11-12T10:06:06.732Z,8.88
2023-11-12T10:08:36.460Z,9.13
2023-11-12T10:11:20.838Z,9.08
2023-11-12T10:13:48.045Z,8.95
2023-11-12T10:16:33.148Z,9.27
2023-11-12T10:19:11.812Z,9.20
2023-11-12T10:21:57.455Z,9.09
2023-11-12T10:24:24.709Z,9.07
2023-11-12T10:26:51.740Z,9.39
2023-11-12T10:29:23.704Z,9.44
2023-11-12T10:31:50.723Z,9.65
2023-11-12T10:34:18.151Z,9.71
2023-11-12T10:37:09.114Z,9.36
2023-11-12T10:39:44.514Z,9.16
2023-11-12T10:42:18.842Z,9.27
2023-11-12T10:44:46.219Z,9.11
2023-11-12T10:47:13.296Z,9.09
2023-11-12T10:49:41.876Z,9.42
2023-11-12T10:52:09.771Z,9.39
2023-11-12T10:54:37.511Z,9.54
2023-11-12T10:57:05.739Z,9.33
2023-11-12T10:59:38.506Z,9.07
2023-11-12T11:02:05.207Z,8.88
2023-11-12T11:04:34.664Z,9.09
2023-11-12T11:07:01.176Z,8.93
2023-11-12T11:09:29.237Z,9.39
2023-11-12T11:11:57.227Z,8.95
2023-11-12T11:14:25.312Z,9.37
2023-11-12T11:16:53.393Z,9.39
2023-11-12T11:19:40.238Z,9.42
2023-11-12T11:22:27.436Z,9.50
2023-11-12T11:24:56.253Z,9.75
2023-11-12T11:27:27.014Z,9.37
2023-11-12T11:30:13.800Z,9.54
2023-11-12T11:32:57.123Z,9.13
2023-11-12T11:35:25.531Z,9.60
2023-11-12T11:38:07.049Z,9.66
2023-11-12T11:40:34.329Z,9.88
2023-11-12T11:43:22.700Z,10.08
2023-11-12T11:46:12.910Z,10.04
2023-11-12T11:48:46.229Z,10.08
2023-11-12T11:51:34.163Z,9.98
2023-11-12T11:54:15.552Z,9.45
2023-11-12T11:56:42.556Z,9.75
2023-11-12T11:59:09.302Z,9.62
2023-11-12T12:01:43.796Z,9.80
2023-11-12T12:04:10.816Z,9.82
2023-11-12T12:06:43.058Z,10.09
2023-11-12T12:09:14.570Z,10.32
2023-11-12T12:11:40.950Z,10.38
2023-11-12T12:14:07.476Z,10.31
2023-11-12T12:16:35.037Z,10.39
2023-11-12T12:19:04.069Z,10.80
2023-11-12T12:21:35.299Z,10.63
2023-11-12T12:24:01.988Z,10.57
2023-11-12T12:26:28.773Z,10.55
2023-11-12T12:28:55.970Z,10.53
2023-11-12T12:31:28.224Z,10.63
2023-11-12T12:33:59.552Z,10.42
2023-11-12T12:36:26.379Z,10.59
2023-11-12T12:39:00.575Z,10.75
2023-11-12T12:41:27.582Z,10.64
2023-11-12T12:43:57.198Z,10.85
2023-11-12T12:46:25.711Z,10.88
2023-11-12T12:48:56.881Z,10.96
2023-11-12T12:51:24.123Z,10.89
2023-11-12T12:53:51.804Z,11.00
2023-11-12T12:56:19.854Z,10.48
2023-11-12T12:58:47.773Z,10.42
2023-11-12T13:01:15.864Z,10.78
2023-11-12T13:03:46.485Z,10.55
2023-11-12T13:06:15.197Z,10.56
2023-11-12T13:08:42.140Z,10.32
2023-11-12T13:11:09.029Z,10.10
2023-11-12T13:13:37.481Z,9.91
2023-11-12T13:16:07.003Z,9.99
2023-11-12T13:18:33.418Z,10.01
2023-11-12T13:21:00.012Z,9.72
2023-11-12T13:23:26.970Z,9.67
2023-11-12T13:25:55.141Z,9.47
2023-11-12T13:28:22.413Z,9.52
2023-11-12T13:30:49.133Z,9.59
2023-11-12T13:33:16.064Z,9.83
2023-11-12T13:35:42.866Z,9.67
2023-11-12T13:38:12.532Z,9.44
2023-11-12T13:40:40.735Z,9.57
2023-11-12T13:43:07.906Z,9.46
2023-11-12T13:45:36.335Z,9.57
2023-11-12T13:48:04.262Z,10.00
2023-11-12T13:50:31.077Z,9.87
2023-11-12T13:52:59.933Z,9.71
2023-11-12T13:55:27.013Z,9.57
2023-11-12T13:57:56.980Z,9.44
2023-11-12T14:00:31.786Z,9.08
2023-11-12T14:02:58.799Z,9.38
2023-11-12T14:05:27.838Z,9.32
2023-11-12T14:07:56.677Z,9.24
2023-11-12T14:10:23.121Z,9.26
2023-11-12T14:12:51.332Z,9.21
2023-11-12T14:15:19.318Z,9.11
2023-11-12T14:17:48.759Z,9.16
2023-11-12T14:20:26.775Z,9.20
2023-11-12T14:22:56.019Z,9.19
2023-11-12T14:25:23.982Z,9.13
2023-11-12T14:27:51.301Z,9.22
2023-11-12T14:30:19.360Z,9.33
2023-11-12T14:32:46.515Z,9.24
2023-11-12T14:35:13.229Z,9.24
2023-11-12T14:37:40.140Z,9.32
2023-11-12T14:40:11.050Z,9.18
2023-11-12T14:42:39.159Z,9.40
2023-11-12T14:45:09.696Z,9.19
2023-11-12T14:47:41.944Z,9.14
2023-11-12T14:50:09.057Z,9.08
2023-11-12T14:52:36.285Z,9.20
2023-11-12T14:55:10.381Z,9.34
2023-11-12T14:57:40.422Z,9.14
2023-11-12T15:00:19.687Z,9.38
2023-11-12T15:02:47.374Z,9.30
2023-11-12T15:05:13.925Z,9.15
2023-11-12T15:07:41.445Z,9.27
2023-11-12T15:10:11.572Z,9.27
2023-11-12T15:12:38.193Z,9.20
2023-11-12T15:15:09.011Z,9.47
2023-11-12T15:17:36.367Z,9.33
2023-11-12T15:20:06.248Z,9.41
2023-11-12T15:22:32.664Z,9.43
2023-11-12T15:24:59.143Z,9.30
2023-11-12T15:27:25.555Z,9.29
2023-11-12T15:29:52.019Z,9.52
2023-11-12T15:32:18.473Z,9.39
2023-11-12T15:34:45.173Z,9.41
2023-11-12T15:37:11.702Z,9.48
2023-11-12T15:39:38.684Z,9.40
2023-11-12T15:42:05.484Z,9.29
2023-11-12T15:44:32.023Z,9.28
2023-11-12T15:46:59.053Z,9.35
2023-11-12T15:49:25.450Z,9.28
2023-11-12T15:51:52.869Z,9.28
2023-11-12T15:54:19.313Z,9.25
2023-11-12T15:56:45.694Z,9.23
2023-11-12T15:59:12.139Z,9.20
2023-11-12T16:01:38.738Z,9.37
2023-11-12T16:04:06.610Z,9.46
2023-11-12T16:06:33.430Z,9.44
2023-11-12T16:09:00.360Z,9.32
2023-11-12T16:11:31.967Z,9.51
2023-11-12T16:13:58.830Z,9.53
2023-11-12T16:16:25.224Z,9.23
2023-11-12T16:18:52.377Z,9.59
2023-11-12T16:21:18.845Z,9.52
2023-11-12T16:23:45.293Z,9.19
2023-11-12T16:26:14.383Z,9.24
2023-11-12T16:28:42.158Z,9.18
2023-11-12T16:31:10.250Z,9.19
2023-11-12T16:33:37.259Z,9.22
2023-11-12T16:36:05.203Z,9.13
2023-11-12T16:38:37.703Z,9.19
2023-11-12T16:41:04.455Z,9.24
2023-11-12T16:43:31.164Z,9.26
2023-11-12T16:45:59.088Z,9.21
2023-11-12T16:48:25.902Z,9.27
2023-11-12T16:50:52.387Z,9.23
2023-11-12T16:53:21.653Z,9.22
2023-11-12T16:55:48.669Z,9.26
2023-11-12T16:58:15.169Z,9.26
2023-11-12T17:00:41.747Z,9.22
2023-11-12T17:03:08.917Z,9.23
2023-11-12T17:05:35.390Z,9.03
2023-11-12T17:08:05.284Z,8.98
2023-11-12T17:10:31.718Z,9.09
2023-11-12T17:12:58.233Z,9.11
2023-11-12T17:15:24.676Z,9.03
2023-11-12T17:17:51.094Z,8.97
2023-11-12T17:20:18.500Z,8.84
2023-11-12T17:22:45.389Z,8.83
2023-11-12T17:25:12.763Z,8.92
2023-11-12T17:27:40.513Z,8.77
2023-11-12T17:30:07.664Z,8.77
2023-11-12T17:32:34.912Z,8.71
2023-11-12T17:35:01.784Z,8.83
2023-11-12T17:37:30.814Z,8.72
2023-11-12T17:39:57.451Z,8.71
2023-11-12T17:42:23.849Z,8.58
2023-11-12T17:44:50.251Z,8.87
2023-11-12T17:47:16.674Z,8.84
2023-11-12T17:49:44.177Z,8.79
2023-11-12T17:52:12.246Z,8.81
2023-11-12T17:54:39.380Z,8.84
2023-11-12T17:57:05.867Z,8.71
2023-11-12T17:59:32.306Z,8.56
2023-11-12T18:01:58.750Z,8.74
2023-11-12T18:04:25.359Z,8.71
2023-11-12T18:06:51.907Z,8.85
2023-11-12T18:09:19.829Z,8.86
2023-11-12T18:11:46.447Z,8.88
2023-11-12T18:14:15.950Z,8.92
2023-11-12T18:16:45.841Z,8.88
2023-11-12T18:19:13.595Z,8.96
2023-11-12T18:21:42.370Z,8.95
2023-11-12T18:24:10.275Z,8.88
2023-11-12T18:26:38.137Z,8.96
2023-11-12T18:29:05.171Z,9.00
2023-11-12T18:31:31.636Z,9.01
2023-11-12T18:33:58.305Z,8.97
2023-11-12T18:36:24.718Z,9.19
2023-11-12T18:38:51.093Z,8.86
2023-11-12T18:41:18.740Z,8.74
2023-11-12T18:43:47.829Z,8.92
2023-11-12T18:46:14.969Z,8.89
2023-11-12T18:48:41.534Z,8.78
2023-11-12T18:51:08.366Z,8.73
2023-11-12T18:53:34.990Z,8.75
2023-11-12T18:56:01.645Z,8.78
2023-11-12T18:58:28.047Z,8.70
2023-11-12T19:00:54.590Z,8.66
2023-11-12T19:03:21.421Z,8.70
2023-11-12T19:05:48.046Z,8.58
2023-11-12T19:08:14.998Z,8.58
2023-11-12T19:10:41.470Z,8.41
2023-11-12T19:13:09.409Z,8.55
2023-11-12T19:15:37.283Z,8.55
2023-11-12T19:18:06.894Z,8.60
2023-11-12T19:20:37.553Z,8.66
2023-11-12T19:23:04.373Z,8.61
2023-11-12T19:25:30.818Z,8.71
2023-11-12T19:27:57.398Z,8.60
2023-11-12T19:30:24.332Z,8.48
2023-11-12T19:32:50.989Z,8.65
2023-11-12T19:35:17.713Z,8.55
2023-11-12T19:37:45.256Z,8.54
2023-11-12T19:40:17.355Z,8.58
2023-11-12T19:42:44.141Z,8.64
2023-11-12T19:45:13.259Z,8.68
2023-11-12T19:47:39.711Z,8.69
2023-11-12T19:50:07.958Z,8.65
2023-11-12T19:52:34.374Z,8.57
2023-11-12T19:55:00.885Z,8.63
2023-11-12T19:57:27.571Z,8.66
2023-11-12T19:59:56.649Z,8.63
2023-11-12T20:02:23.129Z,8.59
2023-11-12T20:04:49.659Z,8.53
2023-11-12T20:07:18.352Z,8.37
2023-11-12T20:09:44.853Z,8.44
2023-11-12T20:12:13.499Z,8.45
2023-11-12T20:14:39.925Z,8.36
2023-11-12T20:17:11.229Z,8.50
2023-11-12T20:19:39.320Z,8.55
2023-11-12T20:22:05.881Z,8.52
2023-11-12T20:24:38.129Z,8.43
2023-11-12T20:27:05.440Z,8.44
2023-11-12T20:29:34.345Z,8.68
2023-11-12T20:32:03.973Z,8.78
2023-11-12T20:34:30.860Z,8.77
2023-11-12T20:36:57.347Z,8.83
2023-11-12T20:39:23.818Z,8.77
2023-11-12T20:41:51.639Z,8.80
2023-11-12T20:44:18.649Z,8.77
2023-11-12T20:46:46.002Z,8.75
2023-11-12T20:49:16.696Z,8.73
2023-11-12T20:51:47.560Z,8.57
2023-11-12T20:54:16.543Z,8.67
2023-11-12T20:56:43.051Z,8.51
2023-11-12T20:59:13.916Z,8.67
2023-11-12T21:01:40.773Z,8.75
2023-11-12T21:04:11.512Z,8.84
2023-11-12T21:06:40.308Z,8.82
2023-11-12T21:09:09.005Z,8.90
2023-11-12T21:11:39.671Z,8.91
2023-11-12T21:14:10.427Z,8.86
2023-11-12T21:16:37.394Z,8.85
2023-11-12T21:19:05.107Z,8.80
2023-11-12T21:21:33.676Z,8.85
2023-11-12T21:24:02.384Z,8.84
2023-11-12T21:26:29.625Z,8.65
2023-11-12T21:28:59.603Z,8.86
2023-11-12T21:31:26.702Z,8.80
2023-11-12T21:33:56.070Z,8.88
2023-11-12T21:36:23.140Z,9.00
2023-11-12T21:38:49.655Z,8.97
2023-11-12T21:41:16.148Z,9.02
2023-11-12T21:43:42.769Z,9.00
2023-11-12T21:46:10.660Z,8.96
2023-11-12T21:48:38.703Z,8.98
2023-11-12T21:51:05.932Z,9.03
2023-11-12T21:53:32.808Z,8.97
2023-11-12T21:56:00.230Z,8.96
2023-11-12T21:58:26.954Z,8.97
2023-11-12T22:00:54.355Z,9.01
2023-11-12T22:03:21.221Z,8.99
2023-11-12T22:05:48.040Z,8.89
2023-11-12T22:08:15.048Z,8.97
2023-11-12T22:10:41.900Z,8.97
2023-11-12T22:13:08.324Z,8.93
2023-11-12T22:15:34.911Z,8.95
2023-11-12T22:18:01.600Z,8.79
2023-11-12T22:20:29.020Z,8.84
2023-11-12T22:22:57.007Z,8.82
2023-11-12T22:25:26.677Z,8.95
2023-11-12T22:27:54.680Z,8.96
2023-11-12T22:30:23.106Z,8.90
2023-11-12T22:32:52.943Z,8.70
2023-11-12T22:35:19.379Z,8.65
2023-11-12T22:37:45.962Z,8.61
2023-11-12T22:40:15.650Z,8.73
2023-11-12T22:42:42.319Z,8.75
2023-11-12T22:45:10.300Z,8.77
2023-11-12T22:47:37.134Z,8.82
2023-11-12T22:50:05.333Z,8.87
2023-11-12T22:52:31.940Z,8.91
2023-11-12T22:54:58.588Z,8.98
2023-11-12T22:57:25.997Z,8.59
2023-11-12T22:59:52.369Z,8.77
2023-11-12T23:02:21.060Z,8.70
2023-11-12T23:04:47.603Z,8.88
2023-11-12T23:07:15.764Z,8.89
2023-11-12T23:09:42.189Z,8.94
2023-11-12T23:12:09.737Z,8.92
2023-11-12T23:14:36.365Z,9.00
2023-11-12T23:17:06.285Z,9.03
2023-11-12T23:19:32.697Z,9.09
2023-11-12T23:21:59.514Z,8.94
2023-11-12T23:24:26.836Z,8.90
2023-11-12T23:26:53.216Z,8.94
2023-11-12T23:29:19.597Z,8.96
2023-11-12T23:31:46.389Z,9.00
2023-11-12T23:34:12.839Z,8.91
2023-11-12T23:36:39.250Z,8.95
2023-11-12T23:39:05.660Z,8.99
2023-11-12T23:41:32.325Z,8.94
2023-11-12T23:43:59.102Z,8.89
2023-11-12T23:46:25.588Z,8.93
2023-11-12T23:48:52.102Z,8.51
2023-11-12T23:51:18.928Z,8.60
2023-11-12T23:53:46.820Z,8.53
2023-11-12T23:56:17.691Z,8.63
2023-11-12T23:58:44.154Z,8.77
